LROPLGAV

Guest
Details From LROP - Bucarest Otopeni Intl
To LGAV - Athens Intl Airport Elefterios Venizel
Flight Number -
Tags decoded
Created
Modified
Stats Distance 439 nm / 813 km
Max Altitude 0 ft / 0 m
Waypoints 6
Social Downloads 3
Likes 0
Share VATSIM

Download

Looking for another format? Having issues loading an existing format? Contact us
Advertisement - Login to hide

Notes

Requested: LROP RONBU GRN GASRU KPL LMO ABLON LGAV Unmatched points: RONBU GASRU

Route

LROP GRN KPL LMO ABLON LGAV

ID Type Via Altitude Latitude Longitude Leg Dist Tot Dist Heading (true) Name
O LROP APT - 0 ft / 0 m 44.57216˚ 26.10218˚ - 0 nm - Bucarest Otopeni Intl
GRN NDB - 0 ft / 0 m 43.16167˚ 25.61278˚ 87 nm 87 nm 194° / 194° GORNA NDB
KPL VOR - 0 ft / 0 m 40.91185˚ 24.61409˚ 142 nm 229 nm 199° / 198° KAVALA VOR-DME
LMO VOR - 0 ft / 0 m 39.91954˚ 25.23719˚ 66 nm 295 nm 154° / 155° LIMNOS VOR-DME
ABLON FIX - 0 ft / 0 m 38.16944˚ 23.73556˚ 126 nm 421 nm 214° / 213° -
O LGAV APT - 0 ft / 0 m 37.93636˚ 23.94447˚ 17 nm 439 nm 145° / 145° Athens Intl Airport Elefterios Venizel

Altitude Profile

Advertisement - Login to hide

Weather


0- 5 10 15 20 25 30 35+ Temperature / ° C

Clouds and Precipitation
Forecast for 2017-12-14 00:00 UTC. Updated 2 hours ago

Ground ~20,000 ft ~40,000 ft Winds

LROP

Details ICAO LROP (OTP)
Name Bucarest Otopeni Intl
Region Romania
Timezone Europe/Bucharest (UTC+2.0)
Stats Elevation 314 ft / 96 m (AMSL)
Location 44.572161° 26.102177°
Runways 2
Magnetic Variation 5.606° E

METAR

LROP 132030Z 07007KT 6000 NSC 06/05 Q1013 NOSIG

Decode

TAF

TAF LROP 131700Z 1318/1418 24010KT 5000 BR NSC TEMPO 1318/1322 1500 BR BKN005 BECMG 1322/1324 3000 RA BR BKN010 OVC030 BECMG 1405/1407 9999 NSW BKN035

Decode

Departure Runways

ID Width Length Bearing (true) Bearing (mag) Surface Threshold Offset Overrun Length
08L 148 ft / 45 m 11,457 ft / 3,492 m 83.91° 78.30° Asphalt 500 ft / 152 m 0 ft / 0 m
08R 148 ft / 45 m 11,455 ft / 3,491 m 83.89° 78.28° Asphalt 450 ft / 137 m 0 ft / 0 m
26L 148 ft / 45 m 11,455 ft / 3,491 m 263.92° 258.31° Asphalt 450 ft / 137 m 0 ft / 0 m
26R 148 ft / 45 m 11,457 ft / 3,492 m 263.94° 258.33° Asphalt 500 ft / 152 m 0 ft / 0 m

LGAV

Details ICAO LGAV (ATH)
Name Athens Intl Airport Elefterios Venizel
Region Greece
Timezone Europe/Athens (UTC+2.0)
Stats Elevation 308 ft / 94 m (AMSL)
Location 37.936357° 23.944470°
Runways 2
Magnetic Variation 4.484° E

METAR

LGAV 132050Z 20011KT CAVOK 15/07 Q1018 NOSIG

Decode

TAF

TAF LGAV 131700Z 1318/1418 25008KT 9999 FEW025= TAF LGEL 131700Z 1318/1418 26010KT 9999 FEW025 BECMG 1319/1321 VRB05KT

Decode

Destination Runways

ID Width Length Bearing (true) Bearing (mag) Surface Threshold Offset Overrun Length
03L 148 ft / 45 m 12,474 ft / 3,802 m 36.51° 32.03° Asphalt 984 ft / 300 m 393 ft / 120 m
03R 148 ft / 45 m 13,131 ft / 4,002 m 36.52° 32.04° Asphalt 984 ft / 300 m 393 ft / 120 m
21L 148 ft / 45 m 13,131 ft / 4,002 m 216.54° 212.06° Asphalt 984 ft / 300 m 393 ft / 120 m
21R 148 ft / 45 m 12,474 ft / 3,802 m 216.53° 212.05° Asphalt 984 ft / 300 m 393 ft / 120 m

Approach Navaids

Runway Type Ident Frequency Range Bearing (true) Bearing (mag) Slope Elevation
03L Localiser IATL 110.50 MHz 18 nm / 33 km 36.52° 32.04° - 282 ft / 86 m (AMSL)
03L Glidescope IATL 110.50 MHz 10 nm / 19 km 36.52° 32.03° 3.00° 255 ft / 78 m (AMSL)
03L DME IATL 110.50 MHz 18 nm / 33 km - - - 255 ft / 78 m (AMSL)
03R Localiser IATR 111.10 MHz 18 nm / 33 km 36.97° 32.49° - 302 ft / 92 m (AMSL)
03R Glidescope IATR 111.10 MHz 10 nm / 19 km 36.53° 32.05° 3.00° 271 ft / 83 m (AMSL)
21L Localiser IEVL 111.10 MHz 18 nm / 33 km 216.52° 212.04° - 271 ft / 83 m (AMSL)
21L Glidescope IEVL 111.10 MHz 10 nm / 19 km 216.53° 212.05° 3.00° 302 ft / 92 m (AMSL)
21L DME IEVL 111.10 MHz 18 nm / 33 km - - - 303 ft / 92 m (AMSL)
21R Localiser IEVR 110.50 MHz 18 nm / 33 km 216.50° 212.02° - 255 ft / 78 m (AMSL)
21R Glidescope IEVR 110.50 MHz 10 nm / 19 km 216.52° 212.03° 3.00° 282 ft / 86 m (AMSL)
21R DME IEVR 110.50 MHz 18 nm / 33 km - - - 282 ft / 86 m (AMSL)

Popular Alternatives